Time;durP1;ratioP1;P1;durP2;ratioP2;P2;SDS_P1;SDS_P2;PMS_P1;PMS_P2;Temp;Humidity;BMP_temperature;BMP_pressure;BME280_temperature;BME280_humidity;BME280_pressure;Samples;Min_cycle;Max_cycle;Signal;HPM_P1;HPM_P2
2021/06/21 00:02:04;;;;;;;10.45;4.25;;;;;;;21.22;57.52;99075.90;1829903;76;21028;-67
2021/06/21 00:04:31;;;;;;;4.03;3.62;;;;;;;21.15;57.59;99054.14;1831500;76;21010;-67
2021/06/21 00:06:57;;;;;;;7.65;4.12;;;;;;;21.21;57.70;99066.78;1825514;76;20917;-67
2021/06/21 00:09:24;;;;;;;4.53;3.83;;;;;;;21.25;57.77;99061.48;1817233;76;21044;-67
2021/06/21 00:11:51;;;;;;;7.50;4.22;;;;;;;21.26;57.74;99064.49;1825656;76;21293;-67
2021/06/21 00:14:17;;;;;;;4.53;3.87;;;;;;;21.21;57.80;99056.98;1826551;76;20957;-64
2021/06/21 00:16:44;;;;;;;4.80;4.40;;;;;;;21.18;57.94;99057.30;1827563;77;20975;-64
2021/06/21 00:19:11;;;;;;;6.70;4.45;;;;;;;21.17;58.02;99050.34;1829551;77;21041;-64
2021/06/21 00:21:38;;;;;;;5.87;4.25;;;;;;;21.15;58.08;99050.98;1824193;76;21484;-64
2021/06/21 00:24:06;;;;;;;;;;;;;;;21.19;58.11;99037.72;1833146;77;21238;-64
2021/06/21 00:26:33;;;;;;;4.30;3.90;;;;;;;21.21;58.33;99038.41;1835094;76;20156;-64
2021/06/21 00:29:00;;;;;;;8.13;4.33;;;;;;;21.26;58.21;99031.78;1820320;76;20996;-65
2021/06/21 00:31:27;;;;;;;4.22;3.83;;;;;;;21.30;58.33;99031.31;1829436;76;20965;-64
2021/06/21 00:33:54;;;;;;;5.45;4.20;;;;;;;21.35;58.37;99033.51;1826315;76;21005;-64
2021/06/21 00:36:20;;;;;;;8.30;3.98;;;;;;;21.41;58.39;99038.21;1817943;77;21235;-64
2021/06/21 00:38:47;;;;;;;8.08;4.45;;;;;;;21.44;58.43;99035.23;1827246;77;21006;-64
2021/06/21 00:41:13;;;;;;;6.25;4.10;;;;;;;21.50;58.50;99031.94;1832573;77;21013;-65
2021/06/21 00:43:40;;;;;;;5.95;4.08;;;;;;;21.57;58.47;99029.50;1819007;77;21500;-64
2021/06/21 00:46:07;;;;;;;6.53;4.17;;;;;;;21.59;58.44;99025.69;1824781;77;21045;-64
2021/06/21 00:48:34;;;;;;;4.62;4.10;;;;;;;21.59;58.45;99028.34;1823399;77;22561;-64
2021/06/21 00:51:00;;;;;;;10.35;4.87;;;;;;;21.58;58.51;99029.32;1828973;76;20919;-64
2021/06/21 00:53:27;;;;;;;6.00;3.77;;;;;;;21.57;58.52;99029.00;1831468;76;20925;-64
2021/06/21 00:55:54;;;;;;;6.22;4.28;;;;;;;21.57;58.59;99025.02;1826977;76;20958;-64
2021/06/21 00:58:21;;;;;;;7.67;4.12;;;;;;;21.57;58.61;99022.36;1826580;76;21498;-64
2021/06/21 01:00:48;;;;;;;5.53;3.95;;;;;;;21.58;58.68;99021.35;1836578;76;21570;-64
2021/06/21 01:03:14;;;;;;;7.85;4.10;;;;;;;21.58;58.71;99014.71;1829270;76;21059;-64
2021/06/21 01:05:41;;;;;;;6.37;4.12;;;;;;;21.60;58.74;99020.70;1824943;77;20890;-64
2021/06/21 01:08:09;;;;;;;5.75;4.35;;;;;;;21.58;58.74;99016.04;1826441;77;21585;-64
2021/06/21 01:10:40;;;;;;;6.50;4.85;;;;;;;21.57;58.84;99017.05;1823700;76;21030;-64
2021/06/21 01:13:14;;;;;;;5.35;4.12;;;;;;;21.56;58.93;99010.05;1830183;76;21038;-66
2021/06/21 01:15:46;;;;;;;8.05;4.03;;;;;;;21.59;59.02;99011.55;1826749;76;20938;-66
2021/06/21 01:18:21;;;;;;;5.25;4.00;;;;;;;21.60;59.04;99009.25;1829026;76;20962;-66
2021/06/21 01:21:22;;;;;;;4.90;4.33;;;;;;;21.61;59.04;99010.41;1823706;76;20976;-66
2021/06/21 01:24:15;;;;;;;5.67;4.45;;;;;;;21.60;59.07;99011.41;1824734;77;21013;-66
2021/06/21 01:26:49;;;;;;;11.88;4.75;;;;;;;21.57;59.15;99013.06;1814660;77;21552;-66
2021/06/21 01:29:31;;;;;;;5.37;4.85;;;;;;;21.56;59.23;99020.67;1826875;77;21388;-66
2021/06/21 01:32:18;;;;;;;6.03;4.53;;;;;;;21.56;59.30;99019.34;1832293;77;21514;-65
2021/06/21 01:34:50;;;;;;;5.15;4.47;;;;;;;21.57;59.43;99013.56;1827662;77;21522;-66
2021/06/21 01:37:19;;;;;;;6.25;4.25;;;;;;;21.57;59.37;99013.56;1824268;77;21458;-65
2021/06/21 01:39:53;;;;;;;4.85;4.35;;;;;;;21.56;59.45;99016.69;1823879;77;21087;-65
2021/06/21 01:42:22;;;;;;;6.42;4.60;;;;;;;21.54;59.46;99022.68;1829452;76;21138;-65
2021/06/21 01:45:08;;;;;;;6.22;5.30;;;;;;;21.49;59.51;99020.98;1823124;77;20993;-65
2021/06/21 01:47:36;;;;;;;7.47;4.55;;;;;;;21.47;59.58;99017.66;1819750;77;20969;-65
2021/06/21 01:50:05;;;;;;;10.13;5.22;;;;;;;21.45;59.70;99015.64;1827632;76;20987;-65
2021/06/21 01:52:36;;;;;;;9.38;4.55;;;;;;;21.46;59.74;99022.64;1823705;77;21866;-65
2021/06/21 01:55:05;;;;;;;8.00;4.50;;;;;;;21.45;59.76;99012.98;1826046;76;21469;-65
2021/06/21 01:57:34;;;;;;;6.67;4.20;;;;;;;21.44;59.84;99013.99;1826587;77;20932;-65
2021/06/21 02:00:08;;;;;;;8.50;4.40;;;;;;;21.44;59.96;99014.81;1816194;77;21005;-65
2021/06/21 02:02:36;;;;;;;10.28;4.50;;;;;;;21.44;60.07;99020.13;1816710;77;20973;-65
2021/06/21 02:05:07;;;;;;;8.10;4.70;;;;;;;21.47;60.13;99016.83;1820331;76;21845;-65
2021/06/21 02:07:35;;;;;;;5.22;4.33;;;;;;;21.49;60.15;99022.31;1834699;76;21019;-65
2021/06/21 02:10:05;;;;;;;7.25;4.45;;;;;;;21.52;60.21;99019.34;1764874;78;20938;-65
2021/06/21 02:12:33;;;;;;;5.33;4.28;;;;;;;21.56;60.29;99017.19;1765920;79;21066;-65
2021/06/21 02:15:01;;;;;;;7.90;4.90;;;;;;;21.60;60.31;99010.08;1798862;78;21111;-65
2021/06/21 02:17:31;;;;;;;5.75;4.80;;;;;;;21.67;60.34;99011.58;1790402;78;22226;-65
2021/06/21 02:19:59;;;;;;;7.05;4.55;;;;;;;21.74;60.42;99007.80;1786643;78;20993;-65
2021/06/21 02:22:29;;;;;;;7.03;4.60;;;;;;;21.81;60.41;99012.29;1752121;80;20990;-65
2021/06/21 02:25:00;;;;;;;6.78;4.17;;;;;;;21.87;60.46;99007.68;1751693;80;21057;-65
2021/06/21 02:27:27;;;;;;;5.65;4.45;;;;;;;21.94;60.44;99001.21;1777380;79;21163;-65
2021/06/21 02:29:57;;;;;;;12.60;4.75;;;;;;;22.01;60.44;99006.19;1767579;79;21534;-65
2021/06/21 02:32:24;;;;;;;5.87;5.15;;;;;;;22.08;60.40;99009.87;1732963;79;21569;-66
2021/06/21 02:34:53;;;;;;;6.75;4.37;;;;;;;22.16;60.41;99008.23;1763174;79;21038;-66
2021/06/21 02:37:20;;;;;;;7.70;4.65;;;;;;;22.25;60.41;99007.27;1761610;79;21033;-66
2021/06/21 02:39:47;;;;;;;6.22;4.35;;;;;;;22.35;60.38;99018.59;1787641;79;20915;-65
2021/06/21 02:42:14;;;;;;;8.03;4.53;;;;;;;22.46;60.37;99016.94;1776716;79;21641;-65
2021/06/21 02:44:41;;;;;;;5.12;4.62;;;;;;;22.83;60.60;99011.59;1771701;79;21048;-66
2021/06/21 02:47:08;;;;;;;10.38;4.53;;;;;;;23.52;60.44;99013.77;1772845;79;20978;-66
2021/06/21 02:49:35;;;;;;;7.75;4.87;;;;;;;24.19;59.99;99011.42;1766100;79;21011;-66
2021/06/21 02:52:07;;;;;;;13.20;4.10;;;;;;;24.79;59.38;99014.66;1745664;79;21516;-66
2021/06/21 02:55:14;;;;;;;9.43;4.67;;;;;;;25.14;59.12;99014.14;1774444;79;21915;-66
2021/06/21 02:57:51;;;;;;;7.40;4.67;;;;;;;25.40;58.63;99009.69;1773226;79;21507;-66
2021/06/21 03:00:19;;;;;;;5.30;4.20;;;;;;;25.63;58.28;99015.77;1761663;79;20990;-66
2021/06/21 03:02:47;;;;;;;8.08;4.05;;;;;;;26.21;58.23;99012.31;1762819;79;20930;-66
2021/06/21 03:05:16;;;;;;;9.58;4.50;;;;;;;26.83;57.80;99011.69;1772339;79;21560;-66
2021/06/21 03:07:44;;;;;;;6.85;4.40;;;;;;;27.39;57.20;99006.30;1764965;79;21117;-66
2021/06/21 03:10:13;;;;;;;11.40;3.95;;;;;;;27.85;56.41;99007.54;1771457;79;20989;-65
2021/06/21 03:12:44;;;;;;;6.50;3.60;;;;;;;28.25;56.22;99012.47;1768710;79;20950;-66
2021/06/21 03:15:15;;;;;;;8.68;3.90;;;;;;;28.63;55.37;99010.59;1766373;79;21494;-66
2021/06/21 03:17:42;;;;;;;10.43;3.72;;;;;;;28.98;54.83;99013.03;1766949;79;21148;-66
2021/06/21 03:20:11;;;;;;;5.50;3.58;;;;;;;29.34;54.37;99014.45;1769520;79;21982;-66
2021/06/21 03:22:39;;;;;;;6.78;4.00;;;;;;;29.61;53.82;99018.70;1768959;79;20929;-66
2021/06/21 03:25:08;;;;;;;8.35;3.75;;;;;;;29.86;53.11;99018.02;1772519;79;21525;-66
2021/06/21 03:27:37;;;;;;;4.97;3.60;;;;;;;29.84;52.48;99020.09;1768046;79;20942;-66
2021/06/21 03:30:09;;;;;;;5.37;3.85;;;;;;;29.85;51.99;99025.77;1767410;79;21531;-66
2021/06/21 03:32:42;;;;;;;5.78;3.35;;;;;;;30.00;51.65;99030.36;1770239;79;21628;-66
2021/06/21 03:35:11;;;;;;;4.95;3.37;;;;;;;30.19;51.10;99030.44;1773072;79;20950;-66
2021/06/21 03:37:39;;;;;;;5.35;3.40;;;;;;;30.31;50.72;99028.77;1770539;79;20986;-66
2021/06/21 03:40:09;;;;;;;9.85;3.40;;;;;;;30.52;50.08;99028.38;1759703;79;20968;-67
2021/06/21 03:42:37;;;;;;;5.28;3.00;;;;;;;30.61;49.55;99030.81;1767083;79;21041;-66
2021/06/21 03:45:06;;;;;;;9.73;3.40;;;;;;;30.81;49.25;99026.13;1759666;79;21506;-66
2021/06/21 03:47:35;;;;;;;4.97;3.30;;;;;;;30.46;48.55;99029.27;1773726;79;21025;-66
2021/06/21 03:50:06;;;;;;;8.35;3.45;;;;;;;30.29;48.65;99033.00;1762188;79;20993;-66
2021/06/21 03:52:32;;;;;;;5.67;3.30;;;;;;;30.67;48.54;99038.01;1770301;79;21026;-67
2021/06/21 03:55:09;;;;;;;7.15;3.35;;;;;;;31.22;48.09;99040.86;1774273;79;21072;-66
2021/06/21 03:57:42;;;;;;;11.60;4.17;;;;;;;31.81;47.89;99047.48;1764101;79;21099;-65
2021/06/21 04:00:17;;;;;;;7.72;3.40;;;;;;;32.26;46.93;99047.11;1767483;79;21516;-66
2021/06/21 04:02:44;;;;;;;5.92;3.15;;;;;;;32.52;45.91;99043.23;1774142;79;21481;-65
2021/06/21 04:05:12;;;;;;;7.53;3.25;;;;;;;32.78;46.00;99047.10;1769778;79;20937;-66
2021/06/21 04:07:41;;;;;;;6.92;3.35;;;;;;;32.95;45.78;99045.34;1767998;79;21029;-66
2021/06/21 04:10:11;;;;;;;14.33;3.80;;;;;;;33.40;45.39;99046.11;1772069;79;22311;-66
2021/06/21 04:12:39;;;;;;;6.45;3.40;;;;;;;33.75;44.88;99038.46;1759608;79;20949;-66
2021/06/21 04:15:09;;;;;;;6.62;3.25;;;;;;;34.17;44.29;99040.41;1769246;79;21569;-66
2021/06/21 04:17:37;;;;;;;4.87;3.20;;;;;;;34.39;43.58;99039.69;1770564;79;20989;-65
2021/06/21 04:20:17;;;;;;;5.78;3.02;;;;;;;34.69;42.41;99017.73;1761698;79;21040;-66
2021/06/21 04:22:44;;;;;;;9.30;3.20;;;;;;;34.69;42.41;99017.73;1766767;79;21151;-66
2021/06/21 04:25:14;;;;;;;9.68;3.08;;;;;;;34.97;42.09;99033.89;1768743;79;20981;-66
2021/06/21 04:27:41;;;;;;;9.85;3.45;;;;;;;34.92;41.83;99031.09;1759733;79;21078;-66
2021/06/21 04:30:14;;;;;;;11.63;3.72;;;;;;;35.18;41.59;99032.87;1774099;79;21568;-66
2021/06/21 04:32:41;;;;;;;8.08;2.75;;;;;;;35.49;41.21;99034.62;1770380;79;21618;-66
2021/06/21 04:35:15;;;;;;;7.92;3.00;;;;;;;35.62;40.56;99032.37;1763108;79;21170;-67
2021/06/21 04:37:42;;;;;;;12.80;3.15;;;;;;;35.94;40.13;99032.22;1778194;78;21025;-66
2021/06/21 04:40:13;;;;;;;18.27;3.85;;;;;;;36.16;39.86;99037.09;1765336;79;20977;-66
2021/06/21 04:42:41;;;;;;;18.82;3.85;;;;;;;36.46;39.33;99020.23;1766412;79;20993;-67
2021/06/21 04:45:09;;;;;;;5.95;2.90;;;;;;;36.73;39.12;99027.02;1773451;79;20942;-67
2021/06/21 04:47:36;;;;;;;7.35;2.50;;;;;;;37.11;38.56;99026.49;1761638;79;21284;-66
2021/06/21 04:50:08;;;;;;;5.45;2.77;;;;;;;37.39;38.03;99027.16;1769376;79;20977;-66
2021/06/21 04:52:38;;;;;;;12.63;2.83;;;;;;;37.69;37.68;99028.41;1768007;79;20950;-66
2021/06/21 04:55:08;;;;;;;8.28;2.75;;;;;;;37.80;37.02;99030.08;1768072;79;20963;-66
2021/06/21 04:57:35;;;;;;;6.33;2.70;;;;;;;37.76;36.94;99034.44;1760366;79;21732;-66
2021/06/21 05:00:13;;;;;;;10.53;2.85;;;;;;;37.98;36.25;99028.27;1758981;79;21307;-66
2021/06/21 05:02:41;;;;;;;9.03;2.98;;;;;;;37.93;35.68;99035.03;1760627;79;20982;-65
2021/06/21 05:05:10;;;;;;;12.33;3.35;;;;;;;37.82;35.39;99033.36;1765998;79;20981;-66
2021/06/21 05:07:39;;;;;;;11.60;2.55;;;;;;;37.73;35.06;99032.22;1768712;79;21104;-66
2021/06/21 05:10:09;;;;;;;8.48;2.72;;;;;;;37.51;34.88;99033.80;1770229;78;20965;-67
2021/06/21 05:12:36;;;;;;;9.75;3.15;;;;;;;37.62;34.96;99024.03;1765026;79;21945;-67
2021/06/21 05:15:05;;;;;;;40.43;5.08;;;;;;;37.77;34.65;99027.34;1778307;79;20966;-67
2021/06/21 05:17:31;;;;;;;7.70;2.62;;;;;;;37.86;34.30;99018.10;1768640;80;22259;-66
2021/06/21 05:19:58;;;;;;;5.22;2.70;;;;;;;37.95;33.92;99021.99;1769538;79;20989;-66
2021/06/21 05:22:25;;;;;;;4.15;2.45;;;;;;;37.87;34.07;99018.40;1753093;79;21091;-66
2021/06/21 05:24:54;;;;;;;7.62;3.02;;;;;;;37.90;33.72;99010.23;1784445;79;21069;-66
2021/06/21 05:27:21;;;;;;;6.50;2.70;;;;;;;37.75;33.40;99010.99;1772497;80;21010;-66
2021/06/21 10:17:50;;;;;;;20.97;7.97;;;;;;;31.84;35.97;98924.20;1872708;74;21978;-65
2021/06/21 10:20:17;;;;;;;20.12;4.65;;;;;;;31.82;35.86;98926.34;1841098;75;21037;-65
2021/06/21 10:22:44;;;;;;;35.40;3.52;;;;;;;31.74;35.75;98930.70;1843764;75;22223;-65
2021/06/21 10:25:16;;;;;;;17.57;5.70;;;;;;;31.63;35.76;98928.78;1836929;75;21024;-65
2021/06/21 10:27:48;;;;;;;15.90;4.42;;;;;;;31.62;35.94;98933.87;1840551;75;21473;-65
2021/06/21 10:30:35;;;;;;;13.78;3.40;;;;;;;31.67;36.09;98938.06;1719855;81;20980;-65
2021/06/21 10:33:02;;;;;;;9.40;2.72;;;;;;;31.69;36.21;98929.22;1710678;81;20973;-66
2021/06/21 10:35:31;;;;;;;11.18;3.08;;;;;;;31.81;36.30;98926.02;1717728;81;21021;-66
2021/06/21 10:38:06;;;;;;;44.33;5.10;;;;;;;31.88;36.15;98926.77;1719422;81;21570;-65
2021/06/21 10:40:54;;;;;;;15.58;3.27;;;;;;;31.64;35.55;98921.80;1714059;81;20945;-65
2021/06/21 10:43:48;;;;;;;18.50;3.65;;;;;;;31.54;36.13;98916.67;1688751;83;20994;-66
2021/06/21 10:46:32;;;;;;;10.32;2.30;;;;;;;31.64;36.21;98918.28;1680764;83;21504;-66
2021/06/21 10:49:22;;;;;;;10.63;2.70;;;;;;;31.73;35.89;98910.15;1678858;83;22631;-66
2021/06/21 10:51:49;;;;;;;54.83;5.15;;;;;;;31.60;35.60;98914.41;1678432;83;21843;-66
2021/06/21 10:54:24;;;;;;;;;;;;;;;31.54;35.68;98911.28;1681394;83;21009;-65
2021/06/21 10:56:55;;;;;;;13.28;2.95;;;;;;;31.66;36.23;98917.53;1675947;83;20484;-65
2021/06/21 10:59:25;;;;;;;9.58;3.15;;;;;;;31.82;36.22;98892.59;1679656;83;21021;-65
2021/06/21 11:01:58;;;;;;;27.75;3.65;;;;;;;32.02;36.10;98907.70;1679329;83;21129;-65
2021/06/21 11:04:39;;;;;;;16.60;3.50;;;;;;;31.81;36.13;98899.03;1652238;83;21005;-65
2021/06/21 11:07:19;;;;;;;17.80;4.00;;;;;;;31.69;36.40;98903.58;1678276;83;21064;-65
2021/06/21 11:09:51;;;;;;;48.10;6.25;;;;;;;31.81;36.77;98899.03;1678311;83;21056;-65
2021/06/21 11:12:36;;;;;;;35.58;4.53;;;;;;;31.82;36.57;98885.85;1675678;83;21145;-66
2021/06/21 11:15:09;;;;;;;23.40;3.33;;;;;;;31.83;37.08;98888.83;1678361;83;21444;-66
2021/06/21 11:17:58;;;;;;;44.48;5.33;;;;;;;31.86;36.73;98882.97;1677331;83;20954;-67
2021/06/21 11:20:44;;;;;;;85.30;8.70;;;;;;;31.59;36.96;98879.02;1679284;83;21047;-67
2021/06/21 11:23:32;;;;;;;26.52;4.10;;;;;;;31.58;36.83;98890.34;1678342;83;20953;-66
2021/06/21 11:25:58;;;;;;;15.13;2.85;;;;;;;31.52;36.87;98883.70;1675236;83;20996;-66
2021/06/21 11:28:36;;;;;;;;;;;;;;;31.38;36.91;98879.83;1680126;83;21579;-66
2021/06/21 11:31:25;;;;;;;59.33;6.70;;;;;;;31.32;37.01;98879.36;1702004;82;20161;-65
2021/06/21 11:34:02;;;;;;;29.67;3.58;;;;;;;31.28;36.29;98861.98;1741010;79;20899;-68
2021/06/21 11:36:48;;;;;;;18.55;4.17;;;;;;;31.08;36.54;98888.37;1744286;79;20962;-66
2021/06/21 11:39:27;;;;;;;21.23;4.12;;;;;;;31.12;37.00;98885.02;1710913;79;21081;-66
2021/06/21 11:42:08;;;;;;;14.98;3.55;;;;;;;31.45;36.99;98881.08;1743936;79;21097;-66
2021/06/21 11:44:44;;;;;;;32.03;3.62;;;;;;;31.39;36.38;98886.04;1750092;79;20956;-66
2021/06/21 11:47:24;;;;;;;20.40;4.28;;;;;;;31.31;36.28;98885.79;1743627;79;20973;-66
2021/06/21 11:49:53;;;;;;;22.73;3.92;;;;;;;31.19;36.55;98891.13;1746041;79;21508;-66
2021/06/21 11:52:24;;;;;;;75.97;8.03;;;;;;;31.27;36.09;98863.03;1745315;79;21061;-65
2021/06/21 11:54:53;;;;;;;104.35;10.13;;;;;;;31.20;35.88;98873.07;1749320;79;21519;-65
2021/06/21 11:57:24;;;;;;;31.37;4.28;;;;;;;31.23;35.83;98876.69;1735914;82;20970;-66
2021/06/21 11:59:52;;;;;;;22.17;3.98;;;;;;;31.43;36.02;98878.63;1735583;82;21246;-66
2021/06/21 12:02:22;;;;;;;83.97;8.23;;;;;;;31.51;35.55;98882.03;1739693;80;21009;-66
2021/06/21 12:04:53;;;;;;;75.10;8.40;;;;;;;31.44;35.11;98891.05;1734667;82;21113;-66
2021/06/21 12:07:36;;;;;;;23.73;4.85;;;;;;;31.42;35.28;98878.84;1741226;80;21066;-66
2021/06/21 12:10:08;;;;;;;15.75;3.50;;;;;;;31.50;35.30;98872.30;1745895;79;20951;-66
2021/06/21 12:12:38;;;;;;;125.70;11.33;;;;;;;31.52;35.35;98862.94;1748559;79;21560;-66
2021/06/21 12:15:09;;;;;;;13.03;3.58;;;;;;;31.59;35.60;98866.88;1743023;79;20993;-67
2021/06/21 12:17:36;;;;;;;16.35;3.12;;;;;;;31.84;35.61;98858.08;1740862;80;20934;-66
2021/06/21 12:20:16;;;;;;;20.77;3.17;;;;;;;31.82;35.17;98860.74;1740097;80;21112;-66
2021/06/21 12:23:10;;;;;;;16.82;2.87;;;;;;;31.77;35.14;98868.17;1748561;79;20967;-66
2021/06/21 12:25:47;;;;;;;29.57;5.58;;;;;;;31.82;34.92;98857.52;1737412;80;21029;-66
2021/06/21 12:28:19;;;;;;;;;;;;;;;31.92;34.96;98856.14;1740727;80;21018;-66
2021/06/21 12:31:06;;;;;;;29.48;3.85;;;;;;;31.98;34.71;98847.92;1740748;80;20126;-66
2021/06/21 12:33:44;;;;;;;13.80;2.72;;;;;;;32.02;35.01;98851.00;1738950;80;21069;-67
2021/06/21 12:36:19;;;;;;;11.00;2.10;;;;;;;32.16;34.64;98847.02;1743561;80;21024;-66
2021/06/21 12:38:56;;;;;;;19.25;5.80;;;;;;;32.13;34.37;98843.97;1746346;80;20934;-66
2021/06/21 12:41:34;;;;;;;34.08;4.40;;;;;;;32.13;34.31;98844.80;1741711;80;21023;-66
2021/06/21 12:44:08;;;;;;;25.17;3.72;;;;;;;32.26;33.36;98847.77;1742530;81;21547;-66
2021/06/21 12:46:41;;;;;;;9.95;2.30;;;;;;;32.14;32.84;98841.02;1738590;80;21449;-66
2021/06/21 12:49:13;;;;;;;7.17;1.80;;;;;;;31.99;32.36;98840.67;1740775;80;21057;-66
2021/06/21 12:51:41;;;;;;;10.53;2.10;;;;;;;31.86;32.18;98842.48;1743126;81;21104;-66
2021/06/21 12:54:10;;;;;;;19.30;3.55;;;;;;;31.91;32.04;98838.28;1744318;80;21535;-66
2021/06/21 12:56:44;;;;;;;20.30;2.65;;;;;;;31.97;32.54;98837.38;1745142;80;20985;-65
2021/06/21 12:59:43;;;;;;;35.92;3.45;;;;;;;31.98;31.16;98825.52;1739193;82;21127;-66
2021/06/21 13:02:25;;;;;;;27.20;3.87;;;;;;;31.79;31.78;98822.89;1740834;80;20967;-66
2021/06/21 13:05:05;;;;;;;29.87;4.85;;;;;;;31.94;31.55;98818.95;1737915;82;20970;-66
2021/06/21 13:07:46;;;;;;;14.23;2.30;;;;;;;31.98;31.73;98814.72;1867813;75;22650;-65
2021/06/21 13:10:18;;;;;;;34.90;5.33;;;;;;;31.99;31.65;98821.78;1830008;77;21563;-65
2021/06/21 13:12:50;;;;;;;49.85;4.28;;;;;;;31.88;31.44;98816.62;1828959;77;21109;-65
2021/06/21 13:15:18;;;;;;;7.87;1.95;;;;;;;31.72;31.45;98812.72;1832440;76;21484;-65
2021/06/21 13:17:51;;;;;;;36.08;4.62;;;;;;;31.73;31.34;98792.77;1829943;77;21536;-66
2021/06/21 13:20:20;;;;;;;13.93;2.47;;;;;;;31.63;31.15;98795.22;1835546;76;20875;-65
2021/06/21 13:22:53;;;;;;;65.20;4.80;;;;;;;31.63;31.58;98804.67;1830004;77;20996;-65
2021/06/21 13:25:31;;;;;;;11.93;1.92;;;;;;;31.64;31.62;98800.91;1779454;78;22297;-65
2021/06/21 13:28:08;;;;;;;13.90;2.33;;;;;;;31.51;31.34;98793.02;1768674;80;21688;-65
2021/06/21 13:30:42;;;;;;;9.80;2.37;;;;;;;31.51;31.82;98791.16;1768875;79;20986;-65
2021/06/21 13:33:18;;;;;;;12.30;2.42;;;;;;;31.63;31.95;98795.22;1772777;80;21556;-66
2021/06/21 13:35:53;;;;;;;82.27;7.62;;;;;;;31.77;32.21;98788.55;1777780;80;21014;-65
2021/06/21 13:38:23;;;;;;;38.15;4.83;;;;;;;31.82;31.97;98781.13;1769452;80;21099;-65
2021/06/21 13:40:50;;;;;;;9.00;2.30;;;;;;;31.83;32.08;98791.67;1772890;79;21033;-65
2021/06/21 13:43:26;;;;;;;37.73;3.05;;;;;;;31.94;32.15;98789.25;1768505;79;20960;-66
2021/06/21 13:46:13;;;;;;;17.23;2.25;;;;;;;32.02;32.16;98786.21;1769618;79;20965;-64
2021/06/21 13:49:02;;;;;;;26.60;4.22;;;;;;;31.96;32.04;98789.81;1767794;79;21032;-66
2021/06/21 13:51:29;;;;;;;12.90;2.20;;;;;;;31.93;32.17;98787.59;1753583;79;21596;-65
2021/06/21 13:53:59;;;;;;;;;;;;;;;31.92;31.92;98790.01;1773544;79;21641;-65
2021/06/21 13:56:31;;;;;;;20.52;2.80;;;;;;;31.72;31.73;98788.42;1770910;79;21077;-64
2021/06/21 13:59:14;;;;;;;19.80;2.85;;;;;;;31.51;31.66;98775.47;1772201;79;20985;-64
2021/06/21 14:01:33;;;;;;;7.80;2.20;;;;;;;31.34;31.90;98789.62;1766715;80;21133;-64
2021/06/21 14:04:02;;;;;;;20.90;3.42;;;;;;;31.47;31.99;98785.09;1775235;80;21104;-64
2021/06/21 14:06:34;;;;;;;12.93;2.35;;;;;;;31.44;31.67;98790.42;1775019;80;20983;-64
2021/06/21 14:09:05;;;;;;;11.00;2.72;;;;;;;31.47;31.95;98791.84;1772030;79;20993;-64
2021/06/21 14:11:32;;;;;;;19.77;2.52;;;;;;;31.60;32.05;98791.64;1743208;79;21572;-64
2021/06/21 14:13:59;;;;;;;13.50;2.12;;;;;;;31.71;32.18;98793.55;1746009;80;21043;-63
2021/06/21 14:16:27;;;;;;;10.68;2.33;;;;;;;31.77;31.96;98794.48;1777486;80;21139;-64
2021/06/21 14:18:57;;;;;;;9.78;2.00;;;;;;;31.67;32.15;98804.48;1737666;80;21045;-64
2021/06/21 14:21:26;;;;;;;9.83;2.65;;;;;;;31.67;32.33;98803.14;1772085;80;20983;-63
2021/06/21 14:23:55;;;;;;;7.53;2.50;;;;;;;31.72;32.25;98803.27;1780026;80;21062;-63
2021/06/21 14:26:22;;;;;;;15.30;2.35;;;;;;;31.70;32.41;98805.37;1772224;79;20993;-63
2021/06/21 14:28:49;;;;;;;16.00;2.80;;;;;;;31.72;32.13;98805.97;1771753;80;21128;-63
2021/06/21 14:31:16;;;;;;;15.00;2.70;;;;;;;31.70;32.34;98799.97;1773664;79;21037;-64
2021/06/21 14:33:43;;;;;;;42.20;4.87;;;;;;;31.71;32.31;98804.34;1771073;79;20954;-63
2021/06/21 14:36:11;;;;;;;56.35;4.55;;;;;;;31.71;32.37;98801.64;1766180;80;21104;-63
2021/06/21 14:38:39;;;;;;;13.93;2.42;;;;;;;31.75;32.35;98796.05;1771255;80;21223;-63
2021/06/21 14:41:06;;;;;;;20.15;2.98;;;;;;;31.70;32.37;98799.97;1772106;80;21106;-64
2021/06/21 14:43:33;;;;;;;45.30;4.92;;;;;;;31.62;32.22;98800.31;1774862;80;21309;-63
2021/06/21 14:46:00;;;;;;;19.73;3.15;;;;;;;31.62;32.36;98792.21;1774737;79;21033;-64
2021/06/21 14:48:26;;;;;;;;;;;;;;;31.65;32.16;98792.59;1770945;79;20954;-64
2021/06/21 14:50:53;;;;;;;12.28;2.02;;;;;;;31.55;32.19;98796.91;1769518;79;20714;-63
2021/06/21 14:53:20;;;;;;;41.13;4.47;;;;;;;31.47;32.00;98795.89;1774440;79;21518;-64
2021/06/21 14:55:46;;;;;;;;;;;;;;;31.41;32.23;98797.09;1773337;79;20920;-63
2021/06/21 14:58:14;;;;;;;23.20;2.95;;;;;;;31.47;32.48;98803.45;1770668;79;20147;-63
2021/06/21 15:00:41;;;;;;;21.17;2.87;;;;;;;31.51;32.47;98791.66;1766278;79;21002;-64
2021/06/21 15:03:08;;;;;;;11.75;2.72;;;;;;;31.56;32.38;98793.14;1772027;79;21018;-64
2021/06/21 15:05:44;;;;;;;17.12;2.30;;;;;;;31.51;32.36;98793.02;1770576;80;21162;-64
2021/06/21 15:08:09;;;;;;;15.75;2.47;;;;;;;31.50;32.49;98795.42;1765835;79;21038;-63
2021/06/21 15:10:35;;;;;;;17.23;2.90;;;;;;;31.42;32.42;98790.67;1774854;79;20939;-63
2021/06/21 15:13:02;;;;;;;23.73;3.00;;;;;;;31.39;32.44;98791.11;1771140;79;21569;-63
2021/06/21 15:15:32;;;;;;;21.30;3.60;;;;;;;31.41;32.50;98797.09;1783448;80;20965;-64
2021/06/21 15:18:00;;;;;;;10.68;2.22;;;;;;;31.47;32.39;98799.94;1771499;79;21211;-64
2021/06/21 15:20:31;;;;;;;7.25;1.85;;;;;;;31.39;32.11;98796.50;1775693;80;21532;-64
2021/06/21 15:22:58;;;;;;;15.80;2.65;;;;;;;31.24;32.16;98803.35;1772546;79;20983;-63
2021/06/21 15:25:25;;;;;;;18.35;2.45;;;;;;;31.20;32.53;98803.81;1751698;80;20943;-63
2021/06/21 15:27:52;;;;;;;14.43;2.75;;;;;;;31.29;32.48;98804.84;1772781;79;21455;-65
2021/06/21 15:30:22;;;;;;;36.63;4.45;;;;;;;31.33;32.53;98802.79;1771642;79;21430;-64
2021/06/21 15:32:50;;;;;;;13.78;2.52;;;;;;;31.32;32.57;98805.20;1770470;79;21515;-65
2021/06/21 15:35:20;;;;;;;18.65;3.22;;;;;;;31.34;32.89;98804.45;1770180;79;21533;-64
2021/06/21 15:37:48;;;;;;;10.70;3.17;;;;;;;31.43;32.99;98792.30;1782821;78;20942;-65
2021/06/21 15:40:17;;;;;;;15.05;3.12;;;;;;;31.51;32.97;98793.02;1777279;80;21191;-65
2021/06/21 15:42:47;;;;;;;22.82;3.20;;;;;;;31.43;32.91;98797.70;1779981;79;21935;-63
2021/06/21 15:45:16;;;;;;;12.93;2.72;;;;;;;31.36;33.09;98790.22;1794375;78;21048;-62
2021/06/21 15:47:42;;;;;;;13.48;2.92;;;;;;;31.37;33.10;98787.84;1780427;79;21713;-63
2021/06/21 15:50:10;;;;;;;;;;;;;;;31.29;33.11;98779.22;1773163;79;21044;-64
2021/06/21 15:52:38;;;;;;;14.10;3.12;;;;;;;31.20;33.26;98778.70;1795556;79;20153;-64
2021/06/21 15:55:13;;;;;;;15.68;2.60;;;;;;;31.14;33.49;98785.02;1769051;80;22786;-64
2021/06/21 15:57:53;;;;;;;8.43;2.70;;;;;;;31.19;33.60;98791.89;1771096;79;21092;-65
2021/06/21 16:00:25;;;;;;;16.45;3.47;;;;;;;31.08;33.53;98783.23;1734503;79;21089;-64
2021/06/21 16:02:54;;;;;;;17.45;3.95;;;;;;;30.98;33.80;98791.88;1781690;79;21076;-65
2021/06/21 16:05:23;;;;;;;11.73;2.90;;;;;;;30.96;33.87;98782.66;1795304;78;20911;-64
2021/06/21 16:07:52;;;;;;;9.75;2.83;;;;;;;30.90;34.02;98787.62;1783456;78;22378;-65
2021/06/21 16:10:20;;;;;;;7.67;3.00;;;;;;;30.93;34.22;98792.55;1776699;79;21613;-64
2021/06/21 16:12:47;;;;;;;9.73;2.85;;;;;;;30.95;34.25;98795.85;1784350;78;21037;-65
2021/06/21 16:15:16;;;;;;;17.98;2.90;;;;;;;30.95;34.40;98792.34;1784480;80;21017;-65
2021/06/21 16:17:43;;;;;;;8.35;2.70;;;;;;;31.01;34.62;98796.00;1775923;80;21059;-66
2021/06/21 16:20:12;;;;;;;8.43;2.60;;;;;;;31.05;34.60;98796.64;1785479;78;20969;-65
2021/06/21 16:22:39;;;;;;;12.53;2.70;;;;;;;31.04;34.66;98795.54;1779491;79;21062;-66
2021/06/21 16:26:25;;;;;;;16.43;2.93;;;;;;;31.05;34.74;98797.98;1816063;77;22296;-64
2021/06/21 16:28:51;;;;;;;15.83;3.02;;;;;;;30.97;34.81;98795.08;1790346;78;20919;-65
2021/06/21 16:31:18;;;;;;;;;;;;;;;30.95;34.88;98792.34;1798925;78;21444;-64
2021/06/21 16:33:44;;;;;;;;;;;;;;;30.93;35.02;98799.82;1794177;78;20922;-64
2021/06/21 16:36:11;;;;;;;14.78;2.67;;;;;;;30.89;34.94;98790.53;1797633;78;20204;-65
2021/06/21 16:38:38;;;;;;;13.18;2.80;;;;;;;30.84;35.06;98792.58;1797140;78;20980;-65
2021/06/21 16:41:07;;;;;;;8.23;3.00;;;;;;;30.80;35.02;98802.14;1789112;78;21510;-67